EDDM/MUC METAR and TAF weather

Enter ICAO airport designator
Station Type Date Time Source
EDDM METAR 2018/12/12 22:50 UTC NOAA

EDDM 122250Z 05005KT 9999 BKN026 M01/M02 Q1019 R88/190095 NOSIG


Station Type Date Time Source
EDDM Decoded METAR 2018/12/12 22:50 UTC NOAA

Munchen, Germany (EDDM) 48-21N 011-47E
Dec 12, 2018 - 05:50 PM EST / 2018.12.12 2250 UTC
Wind: from the NE (050 degrees) at 6 MPH (5 KT):0
Visibility: greater than 7 mile(s):0
Sky conditions: mostly cloudy
Temperature: 30 F (-1 C)
Windchill: 23 F (-5 C):1
Dew Point: 28 F (-2 C)
Relative Humidity: 92%
Pressure (altimeter): 30.09 in. Hg (1019 hPa)
ob: EDDM 122250Z 05005KT 9999 BKN026 M01/M02 Q1019 R88/190095 NOSIG
cycle: 23

Station Type Date Time Source
EDDM TAF 2018/12/12 18:28 UTC NOAA

TAF EDDM 121700Z 1218/1324 02005KT 6000 SCT008 BKN015
TEMPO 1218/1306 4000 -SN BR BKN008
BECMG 1302/1305 08010KT
TEMPO 1306/1312 BKN012


Example: see airport list